Time;durP1;ratioP1;P1;durP2;ratioP2;P2;SDS_P1;SDS_P2;PMS_P1;PMS_P2;Temp;Humidity;BMP_temperature;BMP_pressure;BME280_temperature;BME280_humidity;BME280_pressure;Samples;Min_cycle;Max_cycle;Signal;HPM_P1;HPM_P2
2023/08/30 00:01:50;;;;;;;1.03;0.60;;;;;;;;;;5092956;28;20486;-75
2023/08/30 00:04:17;;;;;;;1.10;0.60;;;;;;;;;;5093297;28;20447;-75
2023/08/30 00:06:44;;;;;;;1.10;0.60;;;;;;;;;;5093316;28;20450;-75
2023/08/30 00:09:12;;;;;;;1.03;0.60;;;;;;;;;;5093084;28;20450;-75
2023/08/30 00:11:39;;;;;;;1.07;0.60;;;;;;;;;;5093567;28;20962;-75
2023/08/30 00:14:07;;;;;;;1.10;0.60;;;;;;;;;;5093003;28;20454;-75
2023/08/30 00:16:35;;;;;;;1.00;0.70;;;;;;;;;;5092885;28;20443;-75
2023/08/30 00:19:03;;;;;;;1.00;0.70;;;;;;;;;;5092805;28;20822;-75
2023/08/30 00:21:30;;;;;;;1.00;0.60;;;;;;;;;;5093399;28;20544;-75
2023/08/30 00:23:57;;;;;;;1.00;0.60;;;;;;;;;;5093217;28;20463;-75
2023/08/30 00:26:24;;;;;;;1.10;0.60;;;;;;;;;;5093407;28;20954;-75
2023/08/30 00:28:52;;;;;;;1.00;0.60;;;;;;;;;;5092772;28;20450;-75
2023/08/30 00:31:19;;;;;;;1.10;0.70;;;;;;;;;;5093111;28;20453;-75
2023/08/30 00:33:47;;;;;;;1.00;0.60;;;;;;;;;;5093199;28;20470;-75
2023/08/30 00:36:17;;;;;;;1.00;0.60;;;;;;;;;;5092986;28;20455;-75
2023/08/30 00:38:44;;;;;;;1.10;0.60;;;;;;;;;;5092882;28;20453;-75
2023/08/30 00:41:11;;;;;;;1.00;0.60;;;;;;;;;;5093141;28;20457;-75
2023/08/30 00:43:38;;;;;;;1.10;0.60;;;;;;;;;;5092346;28;20486;-75
2023/08/30 00:46:05;;;;;;;1.00;0.60;;;;;;;;;;5092893;28;20450;-75
2023/08/30 00:48:32;;;;;;;1.00;0.60;;;;;;;;;;5092799;28;20973;-75
2023/08/30 00:51:01;;;;;;;1.00;0.60;;;;;;;;;;5092877;28;20447;-75
2023/08/30 00:53:28;;;;;;;1.00;0.60;;;;;;;;;;5093052;28;21024;-75
2023/08/30 00:55:55;;;;;;;1.10;0.70;;;;;;;;;;5092630;28;20458;-75
2023/08/30 00:58:22;;;;;;;1.10;0.70;;;;;;;;;;5092610;28;20455;-75
2023/08/30 01:00:50;;;;;;;1.10;0.60;;;;;;;;;;5092537;28;20457;-75
2023/08/30 01:03:17;;;;;;;1.10;0.60;;;;;;;;;;5092718;28;20482;-75
2023/08/30 01:05:44;;;;;;;1.07;0.60;;;;;;;;;;5092716;28;20473;-75
2023/08/30 01:08:13;;;;;;;1.03;0.60;;;;;;;;;;5092344;28;20447;-75
2023/08/30 01:10:46;;;;;;;1.00;0.70;;;;;;;;;;5092645;28;20446;-73
2023/08/30 01:13:17;;;;;;;1.00;0.60;;;;;;;;;;5092431;28;20482;-73
2023/08/30 01:15:44;;;;;;;1.10;0.60;;;;;;;;;;5092901;28;20434;-73
2023/08/30 01:18:13;;;;;;;1.07;0.60;;;;;;;;;;5092514;28;20446;-73
2023/08/30 01:20:41;;;;;;;1.10;0.60;;;;;;;;;;5092863;28;20996;-73
2023/08/30 01:23:10;;;;;;;1.10;0.60;;;;;;;;;;5093212;28;21001;-73
2023/08/30 01:25:45;;;;;;;1.10;0.60;;;;;;;;;;5092787;28;20955;-73
2023/08/30 01:28:13;;;;;;;1.10;0.60;;;;;;;;;;5094247;28;20441;-73
2023/08/30 01:30:42;;;;;;;1.10;0.60;;;;;;;;;;5096497;28;20485;-73
2023/08/30 01:33:09;;;;;;;1.10;0.60;;;;;;;;;;5096276;28;20458;-73
2023/08/30 01:35:37;;;;;;;1.10;0.70;;;;;;;;;;5096287;28;20442;-73
2023/08/30 01:38:05;;;;;;;1.10;0.60;;;;;;;;;;5096259;28;20465;-73
2023/08/30 01:40:35;;;;;;;1.07;0.70;;;;;;;;;;5095931;28;20454;-73
2023/08/30 01:43:04;;;;;;;1.10;0.60;;;;;;;;;;5096077;28;20501;-73
2023/08/30 01:45:33;;;;;;;1.10;0.67;;;;;;;;;;5096190;28;20474;-73
2023/08/30 01:48:00;;;;;;;1.10;0.63;;;;;;;;;;5096366;28;20442;-73
2023/08/30 01:50:28;;;;;;;1.10;0.70;;;;;;;;;;5096054;28;20450;-73
2023/08/30 01:52:56;;;;;;;1.00;0.60;;;;;;;;;;5095936;28;20458;-73
2023/08/30 01:55:23;;;;;;;1.03;0.60;;;;;;;;;;5095596;28;20532;-73
2023/08/30 01:57:50;;;;;;;1.10;0.70;;;;;;;;;;5095897;28;20451;-73
2023/08/30 02:00:20;;;;;;;1.00;0.60;;;;;;;;;;5095842;28;20832;-73
2023/08/30 02:02:49;;;;;;;1.10;0.60;;;;;;;;;;5095527;28;21011;-74
2023/08/30 02:05:16;;;;;;;1.10;0.60;;;;;;;;;;5095763;28;20443;-73
2023/08/30 02:07:47;;;;;;;1.10;0.60;;;;;;;;;;5095408;28;20451;-73
2023/08/30 02:10:24;;;;;;;1.10;0.60;;;;;;;;;;5095434;28;20435;-73
2023/08/30 02:12:52;;;;;;;1.10;0.60;;;;;;;;;;5095232;28;20481;-73
2023/08/30 02:15:19;;;;;;;1.10;0.60;;;;;;;;;;5095558;28;20443;-73
2023/08/30 02:17:47;;;;;;;1.03;0.60;;;;;;;;;;5095639;28;20931;-73
2023/08/30 02:20:15;;;;;;;1.00;0.60;;;;;;;;;;5095470;28;20443;-73
2023/08/30 02:22:42;;;;;;;1.03;0.60;;;;;;;;;;5095250;28;20494;-73
2023/08/30 02:25:10;;;;;;;1.10;0.60;;;;;;;;;;5095064;28;20453;-73
2023/08/30 02:27:37;;;;;;;1.10;0.60;;;;;;;;;;5095259;28;20451;-73
2023/08/30 02:30:04;;;;;;;1.00;0.60;;;;;;;;;;5095304;28;20453;-73
2023/08/30 02:32:31;;;;;;;1.03;0.67;;;;;;;;;;5095179;28;20572;-73
2023/08/30 02:34:59;;;;;;;1.00;0.60;;;;;;;;;;5095091;28;20446;-73
2023/08/30 02:37:27;;;;;;;1.00;0.70;;;;;;;;;;5095093;28;20789;-73
2023/08/30 02:39:54;;;;;;;1.10;0.60;;;;;;;;;;5094425;28;20443;-73
2023/08/30 02:42:21;;;;;;;1.10;0.60;;;;;;;;;;5094877;28;20843;-73
2023/08/30 02:44:48;;;;;;;1.07;0.60;;;;;;;;;;5094970;28;20446;-73
2023/08/30 02:47:15;;;;;;;1.07;0.60;;;;;;;;;;5094713;28;20435;-73
2023/08/30 02:49:42;;;;;;;1.07;0.60;;;;;;;;;;5094884;28;20909;-73
2023/08/30 02:52:10;;;;;;;1.10;0.60;;;;;;;;;;5094762;28;20458;-74
2023/08/30 02:54:38;;;;;;;1.10;0.70;;;;;;;;;;5094831;28;20446;-73
2023/08/30 02:57:05;;;;;;;1.10;0.70;;;;;;;;;;5094407;28;20450;-73
2023/08/30 02:59:32;;;;;;;1.07;0.60;;;;;;;;;;5094675;28;20884;-73
2023/08/30 03:01:59;;;;;;;1.00;0.60;;;;;;;;;;5094839;28;20443;-73
2023/08/30 03:04:27;;;;;;;1.10;0.63;;;;;;;;;;5094392;28;20489;-73
2023/08/30 03:06:54;;;;;;;1.00;0.60;;;;;;;;;;5094603;28;20962;-73
2023/08/30 03:09:21;;;;;;;1.10;0.60;;;;;;;;;;5094524;28;20541;-73
2023/08/30 03:11:49;;;;;;;1.10;0.67;;;;;;;;;;5094089;28;20447;-73
2023/08/30 03:14:17;;;;;;;1.00;0.60;;;;;;;;;;5094228;28;20462;-73
2023/08/30 03:16:46;;;;;;;1.00;0.60;;;;;;;;;;5094244;28;20500;-73
2023/08/30 03:19:13;;;;;;;1.00;0.60;;;;;;;;;;5094374;28;20541;-73
2023/08/30 03:21:40;;;;;;;1.00;0.60;;;;;;;;;;5094259;28;20789;-73
2023/08/30 03:24:07;;;;;;;1.10;0.60;;;;;;;;;;5094134;28;20485;-73
2023/08/30 03:26:35;;;;;;;1.00;0.60;;;;;;;;;;5094162;28;20470;-73
2023/08/30 03:29:03;;;;;;;1.00;0.60;;;;;;;;;;5093994;28;20447;-73
2023/08/30 03:31:30;;;;;;;1.00;0.60;;;;;;;;;;5094168;28;20847;-73
2023/08/30 03:33:57;;;;;;;1.03;0.60;;;;;;;;;;5094019;28;20466;-73
2023/08/30 03:36:25;;;;;;;1.00;0.60;;;;;;;;;;5093778;28;20447;-73
2023/08/30 03:38:52;;;;;;;1.00;0.67;;;;;;;;;;5093665;28;20812;-73
2023/08/30 03:41:19;;;;;;;1.00;0.70;;;;;;;;;;5094023;28;20451;-73
2023/08/30 03:43:47;;;;;;;1.00;0.60;;;;;;;;;;5093733;28;20501;-73
2023/08/30 03:46:16;;;;;;;1.00;0.60;;;;;;;;;;5093635;28;20442;-73
2023/08/30 03:48:43;;;;;;;1.10;0.60;;;;;;;;;;5093910;28;20954;-73
2023/08/30 03:51:10;;;;;;;1.10;0.60;;;;;;;;;;5093089;28;20443;-73
2023/08/30 03:53:37;;;;;;;1.10;0.60;;;;;;;;;;5093420;28;20474;-73
2023/08/30 03:56:04;;;;;;;1.30;1.20;;;;;;;;;;5093372;28;20537;-73
2023/08/30 03:58:31;;;;;;;1.10;0.70;;;;;;;;;;5093400;28;20446;-73
2023/08/30 04:00:58;;;;;;;1.10;0.60;;;;;;;;;;5093350;28;20447;-73
2023/08/30 04:03:27;;;;;;;2.03;1.93;;;;;;;;;;5093185;28;20490;-73
2023/08/30 04:05:57;;;;;;;1.00;0.60;;;;;;;;;;5093831;28;20957;-73
2023/08/30 04:08:24;;;;;;;1.00;0.60;;;;;;;;;;5093625;28;20451;-73
2023/08/30 04:10:53;;;;;;;1.00;0.60;;;;;;;;;;5093176;28;20454;-73
2023/08/30 04:13:20;;;;;;;1.00;0.60;;;;;;;;;;5093326;28;20470;-73
2023/08/30 04:15:47;;;;;;;1.07;0.70;;;;;;;;;;5093532;28;20447;-73
2023/08/30 04:18:14;;;;;;;1.00;0.70;;;;;;;;;;5093357;28;20458;-73
2023/08/30 04:20:46;;;;;;;1.10;0.70;;;;;;;;;;5093535;28;20532;-73
2023/08/30 04:23:13;;;;;;;1.03;0.60;;;;;;;;;;5093426;28;20486;-73
2023/08/30 04:25:40;;;;;;;1.00;0.60;;;;;;;;;;5093619;28;20453;-73
2023/08/30 04:28:07;;;;;;;1.10;0.63;;;;;;;;;;5093552;28;20524;-73
2023/08/30 04:30:36;;;;;;;1.00;0.70;;;;;;;;;;5093436;28;20939;-73
2023/08/30 04:33:04;;;;;;;1.10;0.60;;;;;;;;;;5092654;28;20977;-73
2023/08/30 04:35:31;;;;;;;1.00;0.60;;;;;;;;;;5091957;28;20447;-73
2023/08/30 04:37:59;;;;;;;1.00;0.60;;;;;;;;;;5092010;28;20451;-73
2023/08/30 04:40:28;;;;;;;1.00;0.60;;;;;;;;;;5092001;28;20443;-73
2023/08/30 04:42:55;;;;;;;1.00;0.60;;;;;;;;;;5092824;28;20585;-73
2023/08/30 04:45:22;;;;;;;1.10;0.60;;;;;;;;;;5092159;28;20449;-73
2023/08/30 04:47:49;;;;;;;1.00;0.60;;;;;;;;;;5092152;28;20448;-73
2023/08/30 04:50:17;;;;;;;1.00;0.60;;;;;;;;;;5092573;28;20443;-73
2023/08/30 04:52:44;;;;;;;1.10;0.60;;;;;;;;;;5091783;28;20474;-73
2023/08/30 04:55:12;;;;;;;1.00;0.63;;;;;;;;;;5091904;28;20447;-73
2023/08/30 04:57:44;;;;;;;1.07;0.60;;;;;;;;;;5092139;28;20965;-73
2023/08/30 05:00:12;;;;;;;1.00;0.60;;;;;;;;;;5092198;28;20530;-73
2023/08/30 05:02:39;;;;;;;1.00;0.60;;;;;;;;;;5094189;28;20968;-73
2023/08/30 05:05:07;;;;;;;5.93;5.33;;;;;;;;;;5096091;28;20490;-73
2023/08/30 05:07:34;;;;;;;1.10;0.60;;;;;;;;;;5095901;28;20453;-73
2023/08/30 05:10:01;;;;;;;1.07;0.63;;;;;;;;;;5095717;28;20454;-73
2023/08/30 05:12:28;;;;;;;1.10;0.60;;;;;;;;;;5095298;28;20494;-73
2023/08/30 05:14:57;;;;;;;1.07;0.60;;;;;;;;;;5095890;28;20442;-73
2023/08/30 05:17:24;;;;;;;1.00;0.60;;;;;;;;;;5095894;28;20443;-73
2023/08/30 05:19:51;;;;;;;1.00;0.60;;;;;;;;;;5095452;28;20451;-73
2023/08/30 05:22:18;;;;;;;1.00;0.60;;;;;;;;;;5095755;28;20466;-73
2023/08/30 05:24:45;;;;;;;1.00;0.60;;;;;;;;;;5095611;28;20482;-72
2023/08/30 05:27:14;;;;;;;1.10;0.60;;;;;;;;;;5095347;28;20446;-73
2023/08/30 05:29:41;;;;;;;1.10;0.70;;;;;;;;;;5095182;28;20896;-72
2023/08/30 05:32:10;;;;;;;1.10;0.70;;;;;;;;;;5095180;28;20544;-72
2023/08/30 05:34:37;;;;;;;1.10;0.60;;;;;;;;;;5095350;28;20446;-72
2023/08/30 05:37:04;;;;;;;1.10;0.70;;;;;;;;;;5095183;28;20446;-72
2023/08/30 05:39:31;;;;;;;1.00;0.60;;;;;;;;;;5095476;28;20443;-72
2023/08/30 05:41:58;;;;;;;1.10;0.70;;;;;;;;;;5095182;28;20446;-73
2023/08/30 05:44:26;;;;;;;1.10;0.60;;;;;;;;;;5094694;28;20494;-73
2023/08/30 05:46:54;;;;;;;1.10;0.60;;;;;;;;;;5095284;28;20431;-72
2023/08/30 05:49:22;;;;;;;1.10;0.60;;;;;;;;;;5095126;28;20447;-73
2023/08/30 05:51:49;;;;;;;1.10;0.67;;;;;;;;;;5094969;28;20809;-73
2023/08/30 05:54:16;;;;;;;1.10;0.70;;;;;;;;;;5095155;28;20450;-73
2023/08/30 05:56:43;;;;;;;1.10;0.60;;;;;;;;;;5094931;28;20447;-73
2023/08/30 05:59:10;;;;;;;1.10;0.60;;;;;;;;;;5095033;28;20545;-73
2023/08/30 06:01:38;;;;;;;1.03;0.60;;;;;;;;;;5094736;28;20454;-73
2023/08/30 06:04:05;;;;;;;1.43;1.33;;;;;;;;;;5091451;22;20866;-74
2023/08/30 06:06:33;;;;;;;1.10;0.60;;;;;;;;;;5074182;28;20443;-74
2023/08/30 06:09:01;;;;;;;1.10;0.70;;;;;;;;;;5073730;28;20804;-74
2023/08/30 06:11:28;;;;;;;1.10;0.60;;;;;;;;;;5074211;28;21001;-74
2023/08/30 06:13:55;;;;;;;1.10;0.60;;;;;;;;;;5073102;28;20470;-74
2023/08/30 06:16:22;;;;;;;1.10;0.60;;;;;;;;;;5074075;28;20554;-74
2023/08/30 06:18:49;;;;;;;1.10;0.60;;;;;;;;;;5073800;28;20435;-74
2023/08/30 06:21:16;;;;;;;1.10;0.60;;;;;;;;;;5073956;28;20439;-74
2023/08/30 06:23:45;;;;;;;1.10;0.60;;;;;;;;;;5073734;28;20487;-74
2023/08/30 06:26:12;;;;;;;1.10;0.60;;;;;;;;;;5073575;28;20444;-74
2023/08/30 06:28:39;;;;;;;1.10;0.63;;;;;;;;;;5073596;28;20558;-74
2023/08/30 06:31:06;;;;;;;1.10;0.60;;;;;;;;;;5073589;28;20831;-74
2023/08/30 06:33:33;;;;;;;1.10;0.70;;;;;;;;;;5073681;28;20465;-74
2023/08/30 06:36:00;;;;;;;1.10;0.60;;;;;;;;;;5073461;28;20801;-74
2023/08/30 06:38:27;;;;;;;1.10;0.60;;;;;;;;;;5073514;28;20450;-75
2023/08/30 06:40:59;;;;;;;1.10;0.60;;;;;;;;;;5073330;28;20448;-74
2023/08/30 06:43:26;;;;;;;1.10;0.67;;;;;;;;;;5073335;28;20467;-74
2023/08/30 06:45:53;;;;;;;1.10;0.60;;;;;;;;;;5073551;28;20444;-74
2023/08/30 06:48:21;;;;;;;1.10;0.70;;;;;;;;;;5073123;28;20440;-74
2023/08/30 06:50:48;;;;;;;2.37;2.20;;;;;;;;;;5073247;28;20928;-74
2023/08/30 06:53:15;;;;;;;1.10;0.60;;;;;;;;;;5073022;28;20560;-74
2023/08/30 06:55:42;;;;;;;1.10;0.70;;;;;;;;;;5073400;28;20470;-74
2023/08/30 06:58:10;;;;;;;1.10;0.60;;;;;;;;;;5065837;28;20459;-74
2023/08/30 07:00:38;;;;;;;1.10;0.70;;;;;;;;;;5051084;28;20465;-73
2023/08/30 07:03:05;;;;;;;1.10;0.70;;;;;;;;;;5051471;28;20476;-75
2023/08/30 07:05:32;;;;;;;1.10;0.70;;;;;;;;;;5051757;28;20493;-74
2023/08/30 07:07:59;;;;;;;1.10;0.60;;;;;;;;;;5051444;28;20817;-74
2023/08/30 07:10:26;;;;;;;1.10;0.60;;;;;;;;;;5051642;28;20457;-75
2023/08/30 07:12:53;;;;;;;1.10;0.70;;;;;;;;;;5051416;28;21015;-74
2023/08/30 07:15:22;;;;;;;1.10;0.70;;;;;;;;;;5051748;28;20449;-75
2023/08/30 07:17:49;;;;;;;1.10;0.60;;;;;;;;;;5051455;28;20787;-74
2023/08/30 07:20:16;;;;;;;1.10;0.60;;;;;;;;;;5051343;28;20954;-76
2023/08/30 07:22:43;;;;;;;1.10;0.60;;;;;;;;;;5051516;28;20477;-75
2023/08/30 07:25:12;;;;;;;1.10;0.60;;;;;;;;;;5050249;28;20555;-75
2023/08/30 07:27:39;;;;;;;1.10;0.60;;;;;;;;;;5051217;28;20885;-76
2023/08/30 07:30:07;;;;;;;1.10;0.70;;;;;;;;;;5051108;28;20445;-76
2023/08/30 07:32:35;;;;;;;1.10;0.60;;;;;;;;;;5051363;28;20477;-76
2023/08/30 07:35:03;;;;;;;1.10;0.70;;;;;;;;;;5051056;28;20479;-75
2023/08/30 07:37:30;;;;;;;1.10;0.70;;;;;;;;;;5051611;28;20455;-76
2023/08/30 07:39:57;;;;;;;1.10;0.70;;;;;;;;;;5051845;28;20944;-74
2023/08/30 07:42:24;;;;;;;1.10;0.70;;;;;;;;;;5052305;28;20792;-74
2023/08/30 07:44:52;;;;;;;1.10;0.60;;;;;;;;;;5051875;28;20496;-74
2023/08/30 07:47:20;;;;;;;1.10;0.70;;;;;;;;;;5052212;28;20974;-76
2023/08/30 07:49:48;;;;;;;1.10;0.70;;;;;;;;;;5052142;28;20448;-74
2023/08/30 07:52:15;;;;;;;1.10;0.70;;;;;;;;;;5052098;28;20823;-74
2023/08/30 07:54:42;;;;;;;1.10;0.70;;;;;;;;;;5052322;28;20445;-75
2023/08/30 07:57:09;;;;;;;1.10;0.70;;;;;;;;;;5052115;28;20456;-76
2023/08/30 07:59:37;;;;;;;1.10;0.60;;;;;;;;;;5052070;28;20459;-74
2023/08/30 08:02:06;;;;;;;1.10;0.80;;;;;;;;;;5052126;28;20480;-75
2023/08/30 08:04:33;;;;;;;1.10;0.70;;;;;;;;;;5052007;28;20492;-76
2023/08/30 08:07:02;;;;;;;1.10;0.63;;;;;;;;;;5051816;28;20778;-76
2023/08/30 08:09:29;;;;;;;1.10;0.60;;;;;;;;;;5051965;28;20452;-75
2023/08/30 08:11:57;;;;;;;1.10;0.60;;;;;;;;;;5052060;28;20951;-76
2023/08/30 08:14:24;;;;;;;1.10;0.60;;;;;;;;;;5052127;28;20452;-76
2023/08/30 08:16:51;;;;;;;1.10;0.70;;;;;;;;;;5051803;28;20464;-76
2023/08/30 08:19:19;;;;;;;1.10;0.60;;;;;;;;;;5051964;28;20788;-76
2023/08/30 08:21:47;;;;;;;1.10;0.70;;;;;;;;;;5052021;28;20453;-76
2023/08/30 08:24:15;;;;;;;1.10;0.70;;;;;;;;;;5051712;28;20492;-76
2023/08/30 08:26:42;;;;;;;1.10;0.70;;;;;;;;;;5051646;28;20449;-76
2023/08/30 08:29:10;;;;;;;1.10;0.70;;;;;;;;;;5051828;28;20455;-76
2023/08/30 08:31:37;;;;;;;1.10;0.70;;;;;;;;;;5051804;28;20459;-76
2023/08/30 08:34:09;;;;;;;1.10;0.70;;;;;;;;;;5051824;28;20477;-76
2023/08/30 08:36:36;;;;;;;1.10;0.60;;;;;;;;;;5052394;28;20459;-76
2023/08/30 08:39:04;;;;;;;1.10;0.70;;;;;;;;;;5055849;28;20453;-75
2023/08/30 08:41:36;;;;;;;1.10;0.63;;;;;;;;;;5055910;28;20449;-75
2023/08/30 08:44:04;;;;;;;1.10;0.67;;;;;;;;;;5055355;28;20894;-75
2023/08/30 08:46:32;;;;;;;1.10;0.70;;;;;;;;;;5055847;28;20459;-75
2023/08/30 08:49:00;;;;;;;1.63;1.53;;;;;;;;;;5055417;28;20455;-75
2023/08/30 08:51:27;;;;;;;1.10;0.70;;;;;;;;;;5055660;28;20445;-76
2023/08/30 08:53:56;;;;;;;1.10;0.70;;;;;;;;;;5055245;28;20464;-76
2023/08/30 08:56:24;;;;;;;1.10;0.60;;;;;;;;;;5055750;28;20449;-76
2023/08/30 08:58:52;;;;;;;1.10;0.70;;;;;;;;;;5055125;28;20449;-76
2023/08/30 09:01:20;;;;;;;1.10;0.60;;;;;;;;;;5055879;28;20437;-76
2023/08/30 09:03:47;;;;;;;1.10;0.60;;;;;;;;;;5055055;28;20495;-76
2023/08/30 09:06:15;;;;;;;1.10;0.90;;;;;;;;;;5055408;28;20495;-76
2023/08/30 09:08:42;;;;;;;1.10;0.60;;;;;;;;;;5055462;28;20452;-77
2023/08/30 09:11:09;;;;;;;1.20;0.90;;;;;;;;;;5055332;28;20457;-76
2023/08/30 09:13:36;;;;;;;1.10;0.60;;;;;;;;;;5055655;28;20491;-76
2023/08/30 09:16:12;;;;;;;1.10;0.70;;;;;;;;;;5055113;28;20448;-76
2023/08/30 09:18:39;;;;;;;1.10;0.60;;;;;;;;;;5055196;28;20448;-76
2023/08/30 09:21:07;;;;;;;1.10;0.63;;;;;;;;;;5055185;28;20453;-76
2023/08/30 09:23:34;;;;;;;1.10;0.70;;;;;;;;;;5055254;28;20477;-76
2023/08/30 09:26:02;;;;;;;1.10;0.70;;;;;;;;;;5055009;28;20488;-76
2023/08/30 09:28:29;;;;;;;1.10;0.70;;;;;;;;;;5055202;28;20547;-76
2023/08/30 09:30:59;;;;;;;1.10;0.60;;;;;;;;;;5055107;28;20833;-75
2023/08/30 09:33:32;;;;;;;1.10;0.60;;;;;;;;;;5054941;28;20468;-75
2023/08/30 09:36:00;;;;;;;1.10;0.60;;;;;;;;;;5054945;28;20452;-75
2023/08/30 09:38:27;;;;;;;1.10;0.70;;;;;;;;;;5054641;28;20454;-75
2023/08/30 09:41:03;;;;;;;1.10;0.70;;;;;;;;;;5054710;28;20444;-75
2023/08/30 09:43:31;;;;;;;1.10;0.70;;;;;;;;;;5054386;28;20479;-74
2023/08/30 09:45:59;;;;;;;1.10;0.60;;;;;;;;;;5054797;28;20495;-75
2023/08/30 09:48:29;;;;;;;1.10;0.60;;;;;;;;;;5053372;28;20456;-74
2023/08/30 09:51:00;;;;;;;1.10;0.70;;;;;;;;;;5054745;28;20807;-74
2023/08/30 09:53:28;;;;;;;1.10;0.70;;;;;;;;;;5054731;28;20464;-74
2023/08/30 09:55:55;;;;;;;1.10;0.60;;;;;;;;;;5054783;28;20855;-74
2023/08/30 09:58:23;;;;;;;1.10;0.60;;;;;;;;;;5054230;28;20452;-74
2023/08/30 10:00:50;;;;;;;1.10;0.60;;;;;;;;;;5054250;28;20460;-74
2023/08/30 10:03:17;;;;;;;1.10;0.70;;;;;;;;;;5054315;28;20851;-74
2023/08/30 10:05:46;;;;;;;1.10;0.70;;;;;;;;;;5054295;28;20488;-74
2023/08/30 10:08:15;;;;;;;1.10;0.60;;;;;;;;;;5054154;28;20932;-75
2023/08/30 10:10:42;;;;;;;1.10;0.70;;;;;;;;;;5054389;28;20467;-74
2023/08/30 10:13:11;;;;;;;1.10;0.70;;;;;;;;;;5054245;28;20465;-75
2023/08/30 10:15:42;;;;;;;1.10;0.60;;;;;;;;;;5054301;28;20536;-75
2023/08/30 10:18:10;;;;;;;1.10;0.70;;;;;;;;;;5054094;28;20441;-75
2023/08/30 10:20:38;;;;;;;1.10;0.60;;;;;;;;;;5054245;28;20445;-75
2023/08/30 10:23:06;;;;;;;1.10;0.60;;;;;;;;;;5053777;28;20472;-75
2023/08/30 10:25:35;;;;;;;1.10;0.70;;;;;;;;;;5054194;28;20492;-75
2023/08/30 10:28:03;;;;;;;1.10;0.80;;;;;;;;;;5054321;28;20522;-75
2023/08/30 10:30:31;;;;;;;1.10;0.70;;;;;;;;;;5054335;28;20904;-75
2023/08/30 10:32:59;;;;;;;1.10;0.67;;;;;;;;;;5054157;28;20475;-75
2023/08/30 10:35:26;;;;;;;1.10;0.60;;;;;;;;;;5053991;28;20562;-75
2023/08/30 10:37:57;;;;;;;1.10;0.60;;;;;;;;;;5053980;28;20467;-75
2023/08/30 10:40:24;;;;;;;1.10;0.70;;;;;;;;;;5054020;28;20449;-75
2023/08/30 10:43:01;;;;;;;1.10;0.70;;;;;;;;;;5054239;28;20967;-75
2023/08/30 10:45:29;;;;;;;1.10;0.70;;;;;;;;;;5053970;28;20564;-75
2023/08/30 10:47:58;;;;;;;1.10;0.60;;;;;;;;;;5054354;28;20502;-75
2023/08/30 10:50:32;;;;;;;1.10;0.70;;;;;;;;;;5054052;28;20453;-75
2023/08/30 10:52:59;;;;;;;1.10;0.70;;;;;;;;;;5053887;28;20469;-75
2023/08/30 10:55:26;;;;;;;1.10;0.67;;;;;;;;;;5053540;28;20905;-75
2023/08/30 10:58:00;;;;;;;1.10;0.60;;;;;;;;;;5053643;28;20456;-75
2023/08/30 11:00:29;;;;;;;1.10;0.70;;;;;;;;;;5053369;28;20445;-75
2023/08/30 11:02:56;;;;;;;1.10;0.70;;;;;;;;;;5053522;28;20650;-75
2023/08/30 11:05:24;;;;;;;1.10;0.60;;;;;;;;;;5053331;28;20468;-75
2023/08/30 11:07:52;;;;;;;1.10;0.70;;;;;;;;;;5053658;28;21038;-75
2023/08/30 11:10:19;;;;;;;1.10;0.70;;;;;;;;;;5053616;28;20761;-75
2023/08/30 11:12:49;;;;;;;1.10;0.60;;;;;;;;;;5053142;28;20484;-76
2023/08/30 11:15:16;;;;;;;1.10;0.67;;;;;;;;;;5053942;28;20559;-74
2023/08/30 11:17:44;;;;;;;1.10;0.70;;;;;;;;;;5053499;28;20453;-75
2023/08/30 11:20:12;;;;;;;1.10;0.70;;;;;;;;;;5053684;28;20449;-76
2023/08/30 11:22:39;;;;;;;1.10;0.70;;;;;;;;;;5053130;28;20821;-76
2023/08/30 11:25:07;;;;;;;1.10;0.67;;;;;;;;;;5053564;28;20499;-75
2023/08/30 11:27:34;;;;;;;1.10;0.70;;;;;;;;;;5052918;28;20869;-75
2023/08/30 11:30:02;;;;;;;1.10;0.60;;;;;;;;;;5052748;28;20827;-75
2023/08/30 11:32:29;;;;;;;1.10;0.70;;;;;;;;;;5052843;28;20551;-75
2023/08/30 11:34:58;;;;;;;1.10;0.60;;;;;;;;;;5052994;28;20444;-75
2023/08/30 11:37:28;;;;;;;1.10;0.70;;;;;;;;;;5052879;28;20470;-75
2023/08/30 11:39:56;;;;;;;1.10;0.60;;;;;;;;;;5052701;28;20495;-75
2023/08/30 11:42:23;;;;;;;1.10;0.60;;;;;;;;;;5052879;28;20530;-75
2023/08/30 11:44:51;;;;;;;1.10;0.63;;;;;;;;;;5052248;28;20456;-75
2023/08/30 11:47:21;;;;;;;1.10;0.60;;;;;;;;;;5052742;28;20491;-75
2023/08/30 11:49:50;;;;;;;1.10;0.60;;;;;;;;;;5052414;28;20936;-75
2023/08/30 11:52:19;;;;;;;1.10;0.60;;;;;;;;;;5052704;28;20571;-76
2023/08/30 11:54:47;;;;;;;1.10;0.60;;;;;;;;;;5052835;28;20748;-75
2023/08/30 11:57:15;;;;;;;1.10;0.70;;;;;;;;;;5052496;28;20460;-75
2023/08/30 11:59:42;;;;;;;1.10;0.63;;;;;;;;;;5052725;28;20451;-75
2023/08/30 12:02:09;;;;;;;1.10;0.60;;;;;;;;;;5052314;28;20470;-75
2023/08/30 12:04:41;;;;;;;1.10;0.63;;;;;;;;;;5052560;28;20960;-75
2023/08/30 12:07:08;;;;;;;1.10;0.60;;;;;;;;;;5052187;28;20891;-75
2023/08/30 12:09:37;;;;;;;1.10;0.60;;;;;;;;;;5052695;28;20451;-75
2023/08/30 12:12:07;;;;;;;1.10;0.70;;;;;;;;;;5051687;28;20471;-75
2023/08/30 12:14:35;;;;;;;1.10;0.60;;;;;;;;;;5050605;28;20445;-75
2023/08/30 12:17:03;;;;;;;1.10;0.70;;;;;;;;;;5049805;28;20957;-75
2023/08/30 12:19:30;;;;;;;1.10;0.60;;;;;;;;;;5051092;28;20867;-75
2023/08/30 12:21:57;;;;;;;1.10;0.70;;;;;;;;;;5050781;28;20459;-75
2023/08/30 12:24:24;;;;;;;1.10;0.60;;;;;;;;;;5051239;28;20463;-75
2023/08/30 12:26:53;;;;;;;1.10;0.67;;;;;;;;;;5050710;28;20548;-74
2023/08/30 12:29:20;;;;;;;2.00;1.90;;;;;;;;;;5050808;28;20455;-75
2023/08/30 12:31:47;;;;;;;1.10;0.60;;;;;;;;;;5051195;28;20802;-75
2023/08/30 12:34:14;;;;;;;1.10;0.70;;;;;;;;;;5050849;28;20452;-75
2023/08/30 12:36:42;;;;;;;1.10;0.60;;;;;;;;;;5050965;28;20895;-75
2023/08/30 12:39:09;;;;;;;1.30;1.20;;;;;;;;;;5050616;28;20445;-75
2023/08/30 12:41:36;;;;;;;1.10;0.90;;;;;;;;;;5050848;28;20468;-75
2023/08/30 12:44:05;;;;;;;1.10;0.70;;;;;;;;;;5050240;28;21022;-75
2023/08/30 12:46:33;;;;;;;1.10;0.60;;;;;;;;;;5050816;28;20485;-75
2023/08/30 12:49:00;;;;;;;1.10;0.60;;;;;;;;;;5050751;28;20937;-75
2023/08/30 12:51:27;;;;;;;1.10;0.70;;;;;;;;;;5050766;28;20681;-75
2023/08/30 12:53:54;;;;;;;4.80;3.60;;;;;;;;;;5050406;28;20469;-75
2023/08/30 12:56:21;;;;;;;1.10;0.60;;;;;;;;;;5050241;28;21004;-75
2023/08/30 12:58:48;;;;;;;1.10;0.60;;;;;;;;;;5050586;28;20453;-75
2023/08/30 13:01:17;;;;;;;1.10;0.70;;;;;;;;;;5050456;28;20625;-75
2023/08/30 13:03:44;;;;;;;1.10;0.60;;;;;;;;;;5050129;28;20483;-75
2023/08/30 13:06:11;;;;;;;1.10;0.60;;;;;;;;;;5066569;28;20491;-75
2023/08/30 13:08:38;;;;;;;1.10;0.70;;;;;;;;;;5071063;28;20622;-75
2023/08/30 13:11:05;;;;;;;1.10;0.67;;;;;;;;;;5071810;28;20454;-75
2023/08/30 13:13:32;;;;;;;1.10;0.60;;;;;;;;;;5071659;28;20999;-75
2023/08/30 13:16:00;;;;;;;1.10;0.70;;;;;;;;;;5071548;28;20458;-75
2023/08/30 13:18:28;;;;;;;1.10;0.70;;;;;;;;;;5071251;28;20452;-75
2023/08/30 13:20:56;;;;;;;1.10;0.60;;;;;;;;;;5071687;28;20459;-74
2023/08/30 13:23:23;;;;;;;1.10;0.60;;;;;;;;;;5073558;28;20818;-74
2023/08/30 13:25:50;;;;;;;2.30;1.20;;;;;;;;;;5075503;28;20498;-75
2023/08/30 13:28:17;;;;;;;1.10;0.70;;;;;;;;;;5075266;28;20920;-74
2023/08/30 13:30:49;;;;;;;1.10;0.60;;;;;;;;;;5075231;28;20444;-75
2023/08/30 13:33:17;;;;;;;1.10;0.70;;;;;;;;;;5075268;28;20563;-75
2023/08/30 13:35:50;;;;;;;1.10;0.70;;;;;;;;;;5075092;28;20448;-75
2023/08/30 13:38:18;;;;;;;1.10;0.70;;;;;;;;;;5075249;28;20815;-74
2023/08/30 13:40:45;;;;;;;1.10;0.70;;;;;;;;;;5074729;28;20503;-75
2023/08/30 13:43:12;;;;;;;1.10;0.67;;;;;;;;;;5074835;28;20476;-75
2023/08/30 13:45:39;;;;;;;1.10;0.70;;;;;;;;;;5074567;28;20530;-73
2023/08/30 13:48:06;;;;;;;1.10;0.60;;;;;;;;;;5075067;28;20460;-75
2023/08/30 13:50:33;;;;;;;1.10;0.60;;;;;;;;;;5074933;28;20543;-74
2023/08/30 13:53:02;;;;;;;1.10;0.70;;;;;;;;;;5074722;28;20471;-74
2023/08/30 13:55:30;;;;;;;1.10;0.67;;;;;;;;;;5074952;28;20451;-74
2023/08/30 13:57:58;;;;;;;1.10;0.60;;;;;;;;;;5074402;28;20545;-73
2023/08/30 14:00:25;;;;;;;2.37;2.20;;;;;;;;;;5074493;28;20447;-73
2023/08/30 14:02:52;;;;;;;1.10;0.63;;;;;;;;;;5074400;28;20993;-73
2023/08/30 14:05:19;;;;;;;1.10;0.70;;;;;;;;;;5074710;28;20444;-73
2023/08/30 14:07:46;;;;;;;1.10;0.80;;;;;;;;;;5074296;28;20495;-74
2023/08/30 14:10:18;;;;;;;1.10;0.70;;;;;;;;;;5074604;28;20448;-77
2023/08/30 14:12:45;;;;;;;1.10;0.60;;;;;;;;;;5074147;28;20476;-73
2023/08/30 14:15:13;;;;;;;1.10;0.60;;;;;;;;;;5074596;28;20471;-76
2023/08/30 14:17:41;;;;;;;2.93;2.63;;;;;;;;;;5075234;28;20456;-75
2023/08/30 14:20:09;;;;;;;3.00;2.70;;;;;;;;;;5067999;28;20933;-75
2023/08/30 14:22:36;;;;;;;3.23;2.93;;;;;;;;;;5054253;28;20469;-76
2023/08/30 14:25:04;;;;;;;4.20;3.17;;;;;;;;;;5055008;28;20448;-78
2023/08/30 14:27:32;;;;;;;3.27;2.90;;;;;;;;;;5056190;28;20491;-77
2023/08/30 14:30:00;;;;;;;3.30;3.00;;;;;;;;;;5055606;28;20834;-79
2023/08/30 14:32:27;;;;;;;3.43;3.13;;;;;;;;;;5057388;28;20850;-78
2023/08/30 14:34:54;;;;;;;2.83;2.47;;;;;;;;;;5051943;28;20457;-77
2023/08/30 14:37:21;;;;;;;3.23;2.07;;;;;;;;;;5053401;28;20440;-77
2023/08/30 14:39:49;;;;;;;2.60;2.40;;;;;;;;;;5053911;28;20453;-77
2023/08/30 14:42:16;;;;;;;2.90;2.60;;;;;;;;;;5054235;28;20468;-78
2023/08/30 14:44:44;;;;;;;3.03;2.60;;;;;;;;;;5054645;28;20449;-77
2023/08/30 14:47:11;;;;;;;3.70;2.73;;;;;;;;;;5054059;28;20489;-78